sensor_id;sensor_type;location;lat;lon;timestamp;temperature;humidity
11280;DHT22;5696;50.928;6.960;2022-11-15T06:02:16;11.60;99.90
11280;DHT22;5696;50.928;6.960;2022-11-15T06:04:42;11.50;99.90
11280;DHT22;5696;50.928;6.960;2022-11-15T06:07:08;11.50;99.90
11280;DHT22;5696;50.928;6.960;2022-11-15T06:09:33;11.40;99.90
11280;DHT22;5696;50.928;6.960;2022-11-15T06:11:59;11.40;99.90
11280;DHT22;5696;50.928;6.960;2022-11-15T06:14:24;11.40;99.90
11280;DHT22;5696;50.928;6.960;2022-11-15T06:16:50;11.50;99.90
11280;DHT22;5696;50.928;6.960;2022-11-15T06:19:15;11.50;99.90
11280;DHT22;5696;50.928;6.960;2022-11-15T06:21:42;11.50;99.90
11280;DHT22;5696;50.928;6.960;2022-11-15T06:24:07;11.40;99.90
11280;DHT22;5696;50.928;6.960;2022-11-15T06:26:33;11.40;99.90
11280;DHT22;5696;50.928;6.960;2022-11-15T06:28:59;11.40;99.90
11280;DHT22;5696;50.928;6.960;2022-11-15T06:31:24;11.40;99.90
11280;DHT22;5696;50.928;6.960;2022-11-15T06:33:50;11.30;99.90
11280;DHT22;5696;50.928;6.960;2022-11-15T06:36:16;11.30;99.90
11280;DHT22;5696;50.928;6.960;2022-11-15T06:38:43;11.30;99.90
11280;DHT22;5696;50.928;6.960;2022-11-15T06:41:10;11.30;99.90
11280;DHT22;5696;50.928;6.960;2022-11-15T06:43:36;11.30;99.90
11280;DHT22;5696;50.928;6.960;2022-11-15T06:46:04;11.30;99.90
11280;DHT22;5696;50.928;6.960;2022-11-15T06:48:31;11.30;99.90
11280;DHT22;5696;50.928;6.960;2022-11-15T06:50:58;11.30;99.90
11280;DHT22;5696;50.928;6.960;2022-11-15T06:53:25;11.30;99.90
11280;DHT22;5696;50.928;6.960;2022-11-15T06:55:51;11.30;99.90
11280;DHT22;5696;50.928;6.960;2022-11-15T06:58:17;11.20;99.90
11280;DHT22;5696;50.928;6.960;2022-11-15T07:00:43;11.20;99.90
11280;DHT22;5696;50.928;6.960;2022-11-15T07:03:09;11.20;99.90
11280;DHT22;5696;50.928;6.960;2022-11-15T07:05:35;11.30;99.90
11280;DHT22;5696;50.928;6.960;2022-11-15T07:08:02;11.20;99.90
11280;DHT22;5696;50.928;6.960;2022-11-15T07:10:28;11.20;99.90
11280;DHT22;5696;50.928;6.960;2022-11-15T07:12:55;11.30;99.90
11280;DHT22;5696;50.928;6.960;2022-11-15T07:15:23;11.20;99.90
11280;DHT22;5696;50.928;6.960;2022-11-15T07:17:49;11.30;99.90
11280;DHT22;5696;50.928;6.960;2022-11-15T07:20:16;11.30;99.90
11280;DHT22;5696;50.928;6.960;2022-11-15T07:22:42;11.30;99.90
11280;DHT22;5696;50.928;6.960;2022-11-15T07:25:08;11.30;99.90
11280;DHT22;5696;50.928;6.960;2022-11-15T07:27:34;11.30;99.90
11280;DHT22;5696;50.928;6.960;2022-11-15T07:30:00;11.30;99.90
11280;DHT22;5696;50.928;6.960;2022-11-15T07:32:26;11.30;99.90
11280;DHT22;5696;50.928;6.960;2022-11-15T07:34:52;11.30;99.90
11280;DHT22;5696;50.928;6.960;2022-11-15T07:37:18;11.30;99.90
11280;DHT22;5696;50.928;6.960;2022-11-15T07:39:44;11.40;99.90
11280;DHT22;5696;50.928;6.960;2022-11-15T07:42:09;11.40;99.90
11280;DHT22;5696;50.928;6.960;2022-11-15T07:44:54;11.40;99.90
11280;DHT22;5696;50.928;6.960;2022-11-15T07:47:19;11.50;99.90
11280;DHT22;5696;50.928;6.960;2022-11-15T07:49:46;11.60;99.90
11280;DHT22;5696;50.928;6.960;2022-11-15T07:52:12;11.70;99.90
11280;DHT22;5696;50.928;6.960;2022-11-15T07:54:38;11.70;99.90
11280;DHT22;5696;50.928;6.960;2022-11-15T07:57:04;11.80;99.90
11280;DHT22;5696;50.928;6.960;2022-11-15T07:59:31;11.90;99.90
11280;DHT22;5696;50.928;6.960;2022-11-15T08:01:56;12.00;99.90
11280;DHT22;5696;50.928;6.960;2022-11-15T08:04:22;12.00;99.90
11280;DHT22;5696;50.928;6.960;2022-11-15T08:06:49;12.10;99.90
11280;DHT22;5696;50.928;6.960;2022-11-15T08:09:14;12.10;99.90
11280;DHT22;5696;50.928;6.960;2022-11-15T08:11:40;12.20;99.90
11280;DHT22;5696;50.928;6.960;2022-11-15T08:14:06;12.20;99.90
11280;DHT22;5696;50.928;6.960;2022-11-15T08:16:33;12.30;99.90
11280;DHT22;5696;50.928;6.960;2022-11-15T08:18:58;12.30;99.90
11280;DHT22;5696;50.928;6.960;2022-11-15T08:21:24;12.40;99.90
11280;DHT22;5696;50.928;6.960;2022-11-15T08:23:50;12.40;99.90
11280;DHT22;5696;50.928;6.960;2022-11-15T08:26:15;12.40;99.90
11280;DHT22;5696;50.928;6.960;2022-11-15T08:28:41;12.40;99.90
11280;DHT22;5696;50.928;6.960;2022-11-15T08:31:14;12.40;99.90
11280;DHT22;5696;50.928;6.960;2022-11-15T08:33:40;12.40;99.90
11280;DHT22;5696;50.928;6.960;2022-11-15T08:36:05;12.40;99.90
11280;DHT22;5696;50.928;6.960;2022-11-15T08:38:31;12.60;99.90
11280;DHT22;5696;50.928;6.960;2022-11-15T08:41:03;12.60;99.90
11280;DHT22;5696;50.928;6.960;2022-11-15T08:43:30;12.60;99.90
11280;DHT22;5696;50.928;6.960;2022-11-15T08:45:56;12.70;99.90
11280;DHT22;5696;50.928;6.960;2022-11-15T08:48:22;12.70;99.90
11280;DHT22;5696;50.928;6.960;2022-11-15T08:50:48;12.80;99.90
11280;DHT22;5696;50.928;6.960;2022-11-15T08:53:14;12.80;99.90
11280;DHT22;5696;50.928;6.960;2022-11-15T08:55:40;12.90;99.90
11280;DHT22;5696;50.928;6.960;2022-11-15T08:58:06;12.90;99.90
11280;DHT22;5696;50.928;6.960;2022-11-15T09:00:33;13.00;99.90
11280;DHT22;5696;50.928;6.960;2022-11-15T09:02:59;13.10;99.90
11280;DHT22;5696;50.928;6.960;2022-11-15T09:05:25;13.10;99.90
11280;DHT22;5696;50.928;6.960;2022-11-15T09:07:54;13.10;99.90
11280;DHT22;5696;50.928;6.960;2022-11-15T09:10:21;13.20;99.90
11280;DHT22;5696;50.928;6.960;2022-11-15T09:12:46;13.20;99.90
11280;DHT22;5696;50.928;6.960;2022-11-15T09:15:14;13.20;99.90
11280;DHT22;5696;50.928;6.960;2022-11-15T09:17:41;13.30;99.90
11280;DHT22;5696;50.928;6.960;2022-11-15T09:20:07;13.40;99.90
11280;DHT22;5696;50.928;6.960;2022-11-15T09:22:33;13.60;99.90
11280;DHT22;5696;50.928;6.960;2022-11-15T09:24:59;13.70;99.90
11280;DHT22;5696;50.928;6.960;2022-11-15T09:27:28;13.70;99.90
11280;DHT22;5696;50.928;6.960;2022-11-15T09:29:54;13.80;99.90
11280;DHT22;5696;50.928;6.960;2022-11-15T09:32:19;13.80;99.90
11280;DHT22;5696;50.928;6.960;2022-11-15T09:34:45;13.80;99.90
11280;DHT22;5696;50.928;6.960;2022-11-15T09:37:11;13.90;99.90
11280;DHT22;5696;50.928;6.960;2022-11-15T09:39:37;13.90;99.90
11280;DHT22;5696;50.928;6.960;2022-11-15T09:42:18;14.00;99.90
11280;DHT22;5696;50.928;6.960;2022-11-15T09:45:05;14.00;99.90
11280;DHT22;5696;50.928;6.960;2022-11-15T09:50:48;14.00;99.90
11280;DHT22;5696;50.928;6.960;2022-11-15T09:53:25;14.10;99.90
11280;DHT22;5696;50.928;6.960;2022-11-15T09:56:22;14.10;99.90
11280;DHT22;5696;50.928;6.960;2022-11-15T09:59:04;14.10;99.90
11280;DHT22;5696;50.928;6.960;2022-11-15T10:04:14;14.20;99.90
11280;DHT22;5696;50.928;6.960;2022-11-15T10:06:46;14.30;99.90
11280;DHT22;5696;50.928;6.960;2022-11-15T10:09:58;14.40;99.90
11280;DHT22;5696;50.928;6.960;2022-11-15T10:12:04;14.40;99.90
11280;DHT22;5696;50.928;6.960;2022-11-15T10:14:30;14.30;99.90
11280;DHT22;5696;50.928;6.960;2022-11-15T10:19:42;14.20;99.90
11280;DHT22;5696;50.928;6.960;2022-11-15T10:22:24;14.30;99.90
11280;DHT22;5696;50.928;6.960;2022-11-15T10:24:59;14.40;99.90
11280;DHT22;5696;50.928;6.960;2022-11-15T10:27:25;14.50;99.90
11280;DHT22;5696;50.928;6.960;2022-11-15T10:29:51;14.70;99.90
11280;DHT22;5696;50.928;6.960;2022-11-15T10:32:19;14.70;99.90
11280;DHT22;5696;50.928;6.960;2022-11-15T10:34:47;14.80;99.90
11280;DHT22;5696;50.928;6.960;2022-11-15T10:37:13;14.80;99.90
11280;DHT22;5696;50.928;6.960;2022-11-15T10:39:38;14.70;99.90
11280;DHT22;5696;50.928;6.960;2022-11-15T10:42:17;14.70;99.90
11280;DHT22;5696;50.928;6.960;2022-11-15T10:44:45;14.80;99.90
11280;DHT22;5696;50.928;6.960;2022-11-15T10:47:31;14.80;99.90
11280;DHT22;5696;50.928;6.960;2022-11-15T10:50:03;14.70;99.90
11280;DHT22;5696;50.928;6.960;2022-11-15T10:52:31;14.70;99.90
11280;DHT22;5696;50.928;6.960;2022-11-15T10:55:03;14.70;99.90
11280;DHT22;5696;50.928;6.960;2022-11-15T10:57:35;14.70;99.90
11280;DHT22;5696;50.928;6.960;2022-11-15T11:03:03;14.80;99.90
11280;DHT22;5696;50.928;6.960;2022-11-15T11:05:35;14.80;99.90
11280;DHT22;5696;50.928;6.960;2022-11-15T11:08:21;14.90;99.90
11280;DHT22;5696;50.928;6.960;2022-11-15T11:10:55;14.90;99.90
11280;DHT22;5696;50.928;6.960;2022-11-15T11:13:29;14.70;99.90
11280;DHT22;5696;50.928;6.960;2022-11-15T11:21:19;14.90;99.90
11280;DHT22;5696;50.928;6.960;2022-11-15T11:24:08;15.00;99.90
11280;DHT22;5696;50.928;6.960;2022-11-15T11:26:46;14.90;99.90
11280;DHT22;5696;50.928;6.960;2022-11-15T11:35:14;14.80;99.90
11280;DHT22;5696;50.928;6.960;2022-11-15T11:37:47;14.80;99.90
11280;DHT22;5696;50.928;6.960;2022-11-15T11:43:21;14.90;99.90
11280;DHT22;5696;50.928;6.960;2022-11-15T11:48:55;15.00;99.90
11280;DHT22;5696;50.928;6.960;2022-11-15T11:51:38;15.10;99.90
11280;DHT22;5696;50.928;6.960;2022-11-15T11:54:22;15.20;99.90
11280;DHT22;5696;50.928;6.960;2022-11-15T11:56:51;15.30;99.90
11280;DHT22;5696;50.928;6.960;2022-11-15T11:59:25;15.30;99.90
11280;DHT22;5696;50.928;6.960;2022-11-15T12:01:51;15.20;99.90
11280;DHT22;5696;50.928;6.960;2022-11-15T12:04:30;15.40;99.90
11280;DHT22;5696;50.928;6.960;2022-11-15T12:07:19;15.30;99.90
11280;DHT22;5696;50.928;6.960;2022-11-15T12:12:38;15.50;99.90
11280;DHT22;5696;50.928;6.960;2022-11-15T12:15:15;15.60;99.90
11280;DHT22;5696;50.928;6.960;2022-11-15T12:17:42;15.50;99.90
11280;DHT22;5696;50.928;6.960;2022-11-15T12:21:16;15.40;99.90
11280;DHT22;5696;50.928;6.960;2022-11-15T12:23:20;15.50;99.90
11280;DHT22;5696;50.928;6.960;2022-11-15T12:26:11;15.70;99.90
11280;DHT22;5696;50.928;6.960;2022-11-15T12:28:46;16.00;99.90
11280;DHT22;5696;50.928;6.960;2022-11-15T12:31:23;16.10;99.90
11280;DHT22;5696;50.928;6.960;2022-11-15T12:33:49;16.30;99.90
11280;DHT22;5696;50.928;6.960;2022-11-15T12:41:25;16.10;99.90
11280;DHT22;5696;50.928;6.960;2022-11-15T12:43:51;16.30;99.90
11280;DHT22;5696;50.928;6.960;2022-11-15T12:46:33;16.10;99.90
11280;DHT22;5696;50.928;6.960;2022-11-15T12:59:52;16.10;99.90
11280;DHT22;5696;50.928;6.960;2022-11-15T13:02:35;16.20;99.90
11280;DHT22;5696;50.928;6.960;2022-11-15T13:22:45;15.60;99.90
11280;DHT22;5696;50.928;6.960;2022-11-15T13:27:48;15.60;99.90
11280;DHT22;5696;50.928;6.960;2022-11-15T13:30:20;15.70;99.90
11280;DHT22;5696;50.928;6.960;2022-11-15T13:32:47;15.70;99.90
11280;DHT22;5696;50.928;6.960;2022-11-15T13:35:22;15.70;99.90
11280;DHT22;5696;50.928;6.960;2022-11-15T13:37:49;15.60;99.90
11280;DHT22;5696;50.928;6.960;2022-11-15T13:40:29;15.50;99.90
11280;DHT22;5696;50.928;6.960;2022-11-15T13:42:57;15.40;99.90
11280;DHT22;5696;50.928;6.960;2022-11-15T13:45:24;15.30;99.90
11280;DHT22;5696;50.928;6.960;2022-11-15T13:47:55;15.20;99.90
11280;DHT22;5696;50.928;6.960;2022-11-15T13:50:27;15.10;99.90
11280;DHT22;5696;50.928;6.960;2022-11-15T13:52:57;15.30;99.90
11280;DHT22;5696;50.928;6.960;2022-11-15T13:55:24;15.30;99.90
11280;DHT22;5696;50.928;6.960;2022-11-15T13:57:58;15.30;99.90
11280;DHT22;5696;50.928;6.960;2022-11-15T14:02:55;15.20;99.90
11280;DHT22;5696;50.928;6.960;2022-11-15T14:05:23;15.10;99.90
11280;DHT22;5696;50.928;6.960;2022-11-15T14:08:01;15.30;99.90
11280;DHT22;5696;50.928;6.960;2022-11-15T14:10:36;15.40;99.90
11280;DHT22;5696;50.928;6.960;2022-11-15T14:13:03;15.30;99.90
11280;DHT22;5696;50.928;6.960;2022-11-15T14:15:38;15.40;99.90
11280;DHT22;5696;50.928;6.960;2022-11-15T14:18:05;15.40;99.90
11280;DHT22;5696;50.928;6.960;2022-11-15T14:20:33;15.20;99.90
11280;DHT22;5696;50.928;6.960;2022-11-15T14:23:05;14.90;99.90
11280;DHT22;5696;50.928;6.960;2022-11-15T14:25:32;14.90;99.90
11280;DHT22;5696;50.928;6.960;2022-11-15T14:30:52;15.00;99.90
11280;DHT22;5696;50.928;6.960;2022-11-15T14:35:45;15.00;99.90
11280;DHT22;5696;50.928;6.960;2022-11-15T14:38:11;15.00;99.90
11280;DHT22;5696;50.928;6.960;2022-11-15T14:40:42;14.90;99.90
11280;DHT22;5696;50.928;6.960;2022-11-15T14:43:10;15.00;99.90
11280;DHT22;5696;50.928;6.960;2022-11-15T14:45:36;14.90;99.90
11280;DHT22;5696;50.928;6.960;2022-11-15T14:48:02;14.90;99.90
11280;DHT22;5696;50.928;6.960;2022-11-15T14:50:28;14.90;99.90
11280;DHT22;5696;50.928;6.960;2022-11-15T14:52:54;14.90;99.90
11280;DHT22;5696;50.928;6.960;2022-11-15T14:55:25;14.90;99.90
11280;DHT22;5696;50.928;6.960;2022-11-15T14:57:52;15.00;99.90
11280;DHT22;5696;50.928;6.960;2022-11-15T15:00:18;15.00;99.90
11280;DHT22;5696;50.928;6.960;2022-11-15T15:02:45;15.00;99.90
11280;DHT22;5696;50.928;6.960;2022-11-15T15:05:20;15.00;99.90
11280;DHT22;5696;50.928;6.960;2022-11-15T15:07:46;14.90;99.90
11280;DHT22;5696;50.928;6.960;2022-11-15T15:10:13;14.90;99.90
11280;DHT22;5696;50.928;6.960;2022-11-15T15:12:39;14.90;99.90
11280;DHT22;5696;50.928;6.960;2022-11-15T15:15:08;14.80;99.90
11280;DHT22;5696;50.928;6.960;2022-11-15T15:17:37;14.90;99.90
11280;DHT22;5696;50.928;6.960;2022-11-15T15:20:03;14.80;99.90
11280;DHT22;5696;50.928;6.960;2022-11-15T15:22:29;14.70;99.90
11280;DHT22;5696;50.928;6.960;2022-11-15T15:24:55;14.70;99.90
11280;DHT22;5696;50.928;6.960;2022-11-15T15:27:20;14.50;99.90
11280;DHT22;5696;50.928;6.960;2022-11-15T15:29:46;14.50;99.90
11280;DHT22;5696;50.928;6.960;2022-11-15T15:32:12;14.40;99.90
11280;DHT22;5696;50.928;6.960;2022-11-15T15:34:38;14.50;99.90
11280;DHT22;5696;50.928;6.960;2022-11-15T15:37:08;14.50;99.90
11280;DHT22;5696;50.928;6.960;2022-11-15T15:39:34;14.50;99.90
11280;DHT22;5696;50.928;6.960;2022-11-15T15:41:59;14.40;99.90
11280;DHT22;5696;50.928;6.960;2022-11-15T15:44:25;14.40;99.90
11280;DHT22;5696;50.928;6.960;2022-11-15T15:46:51;14.50;99.90
11280;DHT22;5696;50.928;6.960;2022-11-15T15:49:16;14.50;99.90
11280;DHT22;5696;50.928;6.960;2022-11-15T15:51:42;14.40;99.90
11280;DHT22;5696;50.928;6.960;2022-11-15T15:54:09;14.30;99.90
11280;DHT22;5696;50.928;6.960;2022-11-15T15:56:34;14.30;99.90
11280;DHT22;5696;50.928;6.960;2022-11-15T15:59:00;14.20;99.90
11280;DHT22;5696;50.928;6.960;2022-11-15T16:01:25;14.20;99.90
11280;DHT22;5696;50.928;6.960;2022-11-15T16:03:51;14.20;99.90
11280;DHT22;5696;50.928;6.960;2022-11-15T16:06:33;14.20;99.90
11280;DHT22;5696;50.928;6.960;2022-11-15T16:08:59;14.20;99.90
11280;DHT22;5696;50.928;6.960;2022-11-15T16:11:25;14.30;99.90
11280;DHT22;5696;50.928;6.960;2022-11-15T16:13:51;14.30;99.90
11280;DHT22;5696;50.928;6.960;2022-11-15T16:16:21;14.30;99.90
11280;DHT22;5696;50.928;6.960;2022-11-15T16:18:47;14.30;99.90
11280;DHT22;5696;50.928;6.960;2022-11-15T16:21:13;14.30;99.90
11280;DHT22;5696;50.928;6.960;2022-11-15T16:23:38;14.40;99.90
11280;DHT22;5696;50.928;6.960;2022-11-15T16:26:23;14.30;99.90
11280;DHT22;5696;50.928;6.960;2022-11-15T16:28:50;14.30;99.90
11280;DHT22;5696;50.928;6.960;2022-11-15T16:31:16;14.30;99.90
11280;DHT22;5696;50.928;6.960;2022-11-15T16:33:44;14.40;99.90
11280;DHT22;5696;50.928;6.960;2022-11-15T16:36:22;14.40;99.90
11280;DHT22;5696;50.928;6.960;2022-11-15T16:38:48;14.40;99.90
11280;DHT22;5696;50.928;6.960;2022-11-15T16:41:14;14.40;99.90
11280;DHT22;5696;50.928;6.960;2022-11-15T16:43:44;14.30;99.90
11280;DHT22;5696;50.928;6.960;2022-11-15T16:48:44;14.30;99.90
11280;DHT22;5696;50.928;6.960;2022-11-15T16:51:10;14.30;99.90
11280;DHT22;5696;50.928;6.960;2022-11-15T16:53:36;14.30;99.90
11280;DHT22;5696;50.928;6.960;2022-11-15T16:56:01;14.20;99.90
11280;DHT22;5696;50.928;6.960;2022-11-15T16:58:27;14.20;99.90
11280;DHT22;5696;50.928;6.960;2022-11-15T17:00:54;14.20;99.90
11280;DHT22;5696;50.928;6.960;2022-11-15T17:03:21;14.20;99.90
11280;DHT22;5696;50.928;6.960;2022-11-15T17:05:47;14.20;99.90
11280;DHT22;5696;50.928;6.960;2022-11-15T17:08:13;14.20;99.90
11280;DHT22;5696;50.928;6.960;2022-11-15T17:10:39;14.20;99.90
11280;DHT22;5696;50.928;6.960;2022-11-15T17:13:12;14.20;99.90
11280;DHT22;5696;50.928;6.960;2022-11-15T17:15:38;14.10;99.90
11280;DHT22;5696;50.928;6.960;2022-11-15T17:18:04;14.10;99.90
11280;DHT22;5696;50.928;6.960;2022-11-15T17:20:31;14.20;99.90
11280;DHT22;5696;50.928;6.960;2022-11-15T17:22:57;14.20;99.90
11280;DHT22;5696;50.928;6.960;2022-11-15T17:25:23;14.20;99.90
11280;DHT22;5696;50.928;6.960;2022-11-15T17:27:48;14.10;99.90
11280;DHT22;5696;50.928;6.960;2022-11-15T17:30:14;14.10;99.90
11280;DHT22;5696;50.928;6.960;2022-11-15T17:32:41;14.10;99.90
11280;DHT22;5696;50.928;6.960;2022-11-15T17:35:08;14.10;99.90
11280;DHT22;5696;50.928;6.960;2022-11-15T17:37:34;14.10;99.90
11280;DHT22;5696;50.928;6.960;2022-11-15T17:39:59;14.10;99.90
11280;DHT22;5696;50.928;6.960;2022-11-15T17:42:25;14.00;99.90
11280;DHT22;5696;50.928;6.960;2022-11-15T17:44:51;14.00;99.90
11280;DHT22;5696;50.928;6.960;2022-11-15T17:47:16;13.90;99.90
11280;DHT22;5696;50.928;6.960;2022-11-15T17:49:42;13.90;99.90
11280;DHT22;5696;50.928;6.960;2022-11-15T17:52:08;13.90;99.90
11280;DHT22;5696;50.928;6.960;2022-11-15T17:54:33;13.90;99.90
11280;DHT22;5696;50.928;6.960;2022-11-15T17:56:59;13.80;99.90
11280;DHT22;5696;50.928;6.960;2022-11-15T17:59:24;13.80;99.90
11280;DHT22;5696;50.928;6.960;2022-11-15T18:01:50;13.80;99.90
11280;DHT22;5696;50.928;6.960;2022-11-15T18:04:18;13.70;99.90
11280;DHT22;5696;50.928;6.960;2022-11-15T18:06:44;13.70;99.90
11280;DHT22;5696;50.928;6.960;2022-11-15T18:09:09;13.70;99.90
11280;DHT22;5696;50.928;6.960;2022-11-15T18:11:39;13.70;99.90
11280;DHT22;5696;50.928;6.960;2022-11-15T18:14:13;13.60;99.90
11280;DHT22;5696;50.928;6.960;2022-11-15T18:16:39;13.60;99.90
11280;DHT22;5696;50.928;6.960;2022-11-15T18:19:06;13.60;99.90
11280;DHT22;5696;50.928;6.960;2022-11-15T18:21:40;13.50;99.90
11280;DHT22;5696;50.928;6.960;2022-11-15T18:24:33;13.50;99.90
11280;DHT22;5696;50.928;6.960;2022-11-15T18:27:01;13.50;99.90
11280;DHT22;5696;50.928;6.960;2022-11-15T18:29:27;13.40;99.90
11280;DHT22;5696;50.928;6.960;2022-11-15T18:31:53;13.40;99.90
11280;DHT22;5696;50.928;6.960;2022-11-15T18:34:26;13.30;99.90
11280;DHT22;5696;50.928;6.960;2022-11-15T18:36:58;13.30;99.90
11280;DHT22;5696;50.928;6.960;2022-11-15T18:39:23;13.30;99.90
11280;DHT22;5696;50.928;6.960;2022-11-15T18:41:49;13.20;99.90
11280;DHT22;5696;50.928;6.960;2022-11-15T18:44:15;13.20;99.90
11280;DHT22;5696;50.928;6.960;2022-11-15T18:46:42;13.20;99.90
11280;DHT22;5696;50.928;6.960;2022-11-15T18:49:10;13.20;99.90
11280;DHT22;5696;50.928;6.960;2022-11-15T18:51:37;13.10;99.90
11280;DHT22;5696;50.928;6.960;2022-11-15T18:54:07;13.10;99.90
11280;DHT22;5696;50.928;6.960;2022-11-15T18:56:33;13.00;99.90
11280;DHT22;5696;50.928;6.960;2022-11-15T18:59:00;12.90;99.90
11280;DHT22;5696;50.928;6.960;2022-11-15T19:01:37;12.90;99.90
11280;DHT22;5696;50.928;6.960;2022-11-15T19:04:07;12.80;99.90
11280;DHT22;5696;50.928;6.960;2022-11-15T19:06:37;12.90;99.90
11280;DHT22;5696;50.928;6.960;2022-11-15T19:09:03;12.90;99.90
11280;DHT22;5696;50.928;6.960;2022-11-15T19:11:31;12.80;99.90
11280;DHT22;5696;50.928;6.960;2022-11-15T19:13:58;12.70;99.90
11280;DHT22;5696;50.928;6.960;2022-11-15T19:16:26;12.70;99.90
11280;DHT22;5696;50.928;6.960;2022-11-15T19:18:56;12.70;99.90
11280;DHT22;5696;50.928;6.960;2022-11-15T19:21:23;12.70;99.90
11280;DHT22;5696;50.928;6.960;2022-11-15T19:23:49;12.60;99.90
11280;DHT22;5696;50.928;6.960;2022-11-15T19:26:16;12.60;99.90
11280;DHT22;5696;50.928;6.960;2022-11-15T19:28:42;12.50;99.90
11280;DHT22;5696;50.928;6.960;2022-11-15T19:31:13;12.60;99.90
11280;DHT22;5696;50.928;6.960;2022-11-15T19:33:40;12.60;99.90
11280;DHT22;5696;50.928;6.960;2022-11-15T19:36:12;12.60;99.90
11280;DHT22;5696;50.928;6.960;2022-11-15T19:38:39;12.50;99.90
11280;DHT22;5696;50.928;6.960;2022-11-15T19:41:07;12.50;99.90
11280;DHT22;5696;50.928;6.960;2022-11-15T19:43:34;12.50;99.90
11280;DHT22;5696;50.928;6.960;2022-11-15T19:46:01;12.50;99.90
11280;DHT22;5696;50.928;6.960;2022-11-15T19:48:28;12.50;99.90
11280;DHT22;5696;50.928;6.960;2022-11-15T19:50:53;12.50;99.90
11280;DHT22;5696;50.928;6.960;2022-11-15T19:53:19;12.50;99.90
11280;DHT22;5696;50.928;6.960;2022-11-15T19:55:56;12.60;99.90
11280;DHT22;5696;50.928;6.960;2022-11-15T19:58:22;12.50;99.90
11280;DHT22;5696;50.928;6.960;2022-11-15T20:00:48;12.50;99.90
11280;DHT22;5696;50.928;6.960;2022-11-15T20:03:13;12.50;99.90
11280;DHT22;5696;50.928;6.960;2022-11-15T20:05:39;12.50;99.90
11280;DHT22;5696;50.928;6.960;2022-11-15T20:08:05;12.50;99.90
11280;DHT22;5696;50.928;6.960;2022-11-15T20:10:31;12.40;99.90
11280;DHT22;5696;50.928;6.960;2022-11-15T20:12:57;12.40;99.90
11280;DHT22;5696;50.928;6.960;2022-11-15T20:15:23;12.40;99.90
11280;DHT22;5696;50.928;6.960;2022-11-15T20:17:48;12.30;99.90
11280;DHT22;5696;50.928;6.960;2022-11-15T20:20:14;12.30;99.90
11280;DHT22;5696;50.928;6.960;2022-11-15T20:22:40;12.30;99.90
11280;DHT22;5696;50.928;6.960;2022-11-15T20:25:05;12.30;99.90
11280;DHT22;5696;50.928;6.960;2022-11-15T20:27:31;12.30;99.90
11280;DHT22;5696;50.928;6.960;2022-11-15T20:29:57;12.30;99.90
11280;DHT22;5696;50.928;6.960;2022-11-15T20:32:22;12.30;99.90
11280;DHT22;5696;50.928;6.960;2022-11-15T20:34:48;12.30;99.90
11280;DHT22;5696;50.928;6.960;2022-11-15T20:37:14;12.30;99.90
11280;DHT22;5696;50.928;6.960;2022-11-15T20:39:39;12.30;99.90
11280;DHT22;5696;50.928;6.960;2022-11-15T20:42:05;12.40;99.90
11280;DHT22;5696;50.928;6.960;2022-11-15T20:44:32;12.30;99.90
11280;DHT22;5696;50.928;6.960;2022-11-15T20:46:58;12.30;99.90
11280;DHT22;5696;50.928;6.960;2022-11-15T20:49:24;12.30;99.90
11280;DHT22;5696;50.928;6.960;2022-11-15T20:51:49;12.30;99.90
11280;DHT22;5696;50.928;6.960;2022-11-15T20:54:15;12.30;99.90
11280;DHT22;5696;50.928;6.960;2022-11-15T20:56:41;12.30;99.90
11280;DHT22;5696;50.928;6.960;2022-11-15T20:59:06;12.30;99.90
11280;DHT22;5696;50.928;6.960;2022-11-15T21:01:32;12.30;99.90
11280;DHT22;5696;50.928;6.960;2022-11-15T21:03:58;12.20;99.90
11280;DHT22;5696;50.928;6.960;2022-11-15T21:06:25;12.30;99.90
11280;DHT22;5696;50.928;6.960;2022-11-15T21:08:51;12.30;99.90
11280;DHT22;5696;50.928;6.960;2022-11-15T21:11:36;12.30;99.90
11280;DHT22;5696;50.928;6.960;2022-11-15T21:14:21;12.30;99.90
11280;DHT22;5696;50.928;6.960;2022-11-15T21:16:47;12.30;99.90
11280;DHT22;5696;50.928;6.960;2022-11-15T21:19:12;12.30;99.90
11280;DHT22;5696;50.928;6.960;2022-11-15T21:21:38;12.20;99.90
11280;DHT22;5696;50.928;6.960;2022-11-15T21:24:08;12.30;99.90
11280;DHT22;5696;50.928;6.960;2022-11-15T21:26:34;12.30;99.90
11280;DHT22;5696;50.928;6.960;2022-11-15T21:29:00;12.20;99.90
11280;DHT22;5696;50.928;6.960;2022-11-15T21:31:26;12.20;99.90
11280;DHT22;5696;50.928;6.960;2022-11-15T21:33:52;12.20;99.90
11280;DHT22;5696;50.928;6.960;2022-11-15T21:36:18;12.30;99.90
11280;DHT22;5696;50.928;6.960;2022-11-15T21:38:43;12.20;99.90
11280;DHT22;5696;50.928;6.960;2022-11-15T21:41:09;12.20;99.90
11280;DHT22;5696;50.928;6.960;2022-11-15T21:43:35;12.20;99.90
11280;DHT22;5696;50.928;6.960;2022-11-15T21:46:04;12.20;99.90
11280;DHT22;5696;50.928;6.960;2022-11-15T21:48:32;12.20;99.90
11280;DHT22;5696;50.928;6.960;2022-11-15T21:51:03;12.20;99.90
11280;DHT22;5696;50.928;6.960;2022-11-15T21:53:30;12.20;99.90
11280;DHT22;5696;50.928;6.960;2022-11-15T21:55:56;12.20;99.90
11280;DHT22;5696;50.928;6.960;2022-11-15T21:58:23;12.20;99.90
11280;DHT22;5696;50.928;6.960;2022-11-15T22:00:49;12.10;99.90
11280;DHT22;5696;50.928;6.960;2022-11-15T22:03:33;12.10;99.90
11280;DHT22;5696;50.928;6.960;2022-11-15T22:05:59;12.10;99.90
11280;DHT22;5696;50.928;6.960;2022-11-15T22:08:25;12.10;99.90
11280;DHT22;5696;50.928;6.960;2022-11-15T22:10:51;12.10;99.90
11280;DHT22;5696;50.928;6.960;2022-11-15T22:13:18;12.10;99.90
11280;DHT22;5696;50.928;6.960;2022-11-15T22:15:44;12.10;99.90
11280;DHT22;5696;50.928;6.960;2022-11-15T22:18:10;12.10;99.90
11280;DHT22;5696;50.928;6.960;2022-11-15T22:20:36;12.10;99.90
11280;DHT22;5696;50.928;6.960;2022-11-15T22:23:03;12.10;99.90
11280;DHT22;5696;50.928;6.960;2022-11-15T22:25:29;12.10;99.90
11280;DHT22;5696;50.928;6.960;2022-11-15T22:27:54;12.10;99.90
11280;DHT22;5696;50.928;6.960;2022-11-15T22:30:21;12.20;99.90
11280;DHT22;5696;50.928;6.960;2022-11-15T22:32:47;12.10;99.90
11280;DHT22;5696;50.928;6.960;2022-11-15T22:35:13;12.20;99.90
11280;DHT22;5696;50.928;6.960;2022-11-15T22:37:39;12.20;99.90
11280;DHT22;5696;50.928;6.960;2022-11-15T22:40:05;12.10;99.90
11280;DHT22;5696;50.928;6.960;2022-11-15T22:42:31;12.10;99.90
11280;DHT22;5696;50.928;6.960;2022-11-15T22:44:57;12.10;99.90
11280;DHT22;5696;50.928;6.960;2022-11-15T22:47:23;12.10;99.90
11280;DHT22;5696;50.928;6.960;2022-11-15T22:49:48;12.10;99.90
11280;DHT22;5696;50.928;6.960;2022-11-15T22:52:14;12.10;99.90
11280;DHT22;5696;50.928;6.960;2022-11-15T22:54:40;12.10;99.90
11280;DHT22;5696;50.928;6.960;2022-11-15T22:57:05;12.10;99.90
11280;DHT22;5696;50.928;6.960;2022-11-15T22:59:31;12.10;99.90
11280;DHT22;5696;50.928;6.960;2022-11-15T23:01:57;12.00;99.90
11280;DHT22;5696;50.928;6.960;2022-11-15T23:04:22;12.10;99.90
11280;DHT22;5696;50.928;6.960;2022-11-15T23:06:48;12.00;99.90
